createdAt,value
2024-02-21T00:01:03.114Z,4.90
2024-02-21T00:03:51.041Z,4.60
2024-02-21T00:06:24.252Z,4.30
2024-02-21T00:08:57.398Z,4.90
2024-02-21T00:11:30.709Z,5.10
2024-02-21T00:14:04.035Z,5.50
2024-02-21T00:16:37.628Z,6.10
2024-02-21T00:19:10.835Z,4.90
2024-02-21T00:21:44.024Z,6.60
2024-02-21T00:24:17.315Z,5.80
2024-02-21T00:26:50.481Z,5.10
2024-02-21T00:29:23.651Z,5.30
2024-02-21T00:31:56.897Z,6.20
2024-02-21T00:34:30.234Z,5.80
2024-02-21T00:37:03.595Z,5.10
2024-02-21T00:39:36.714Z,5.30
2024-02-21T00:42:10.390Z,5.00
2024-02-21T00:44:43.489Z,5.70
2024-02-21T00:47:17.304Z,6.20
2024-02-21T00:49:50.510Z,6.00
2024-02-21T00:52:23.747Z,6.10
2024-02-21T00:54:56.948Z,4.50
2024-02-21T00:57:30.207Z,5.40
2024-02-21T01:00:03.370Z,6.70
2024-02-21T01:02:36.536Z,5.70
2024-02-21T01:05:11.050Z,6.40
2024-02-21T01:07:44.306Z,5.10
2024-02-21T01:10:18.068Z,4.80
2024-02-21T01:12:51.301Z,5.50
2024-02-21T01:15:24.709Z,6.10
2024-02-21T01:17:57.902Z,5.10
2024-02-21T01:20:31.605Z,6.20
2024-02-21T01:23:04.901Z,5.80
2024-02-21T01:25:38.087Z,6.60
2024-02-21T01:28:11.455Z,6.80
2024-02-21T01:30:44.599Z,7.10
2024-02-21T01:33:17.729Z,5.90
2024-02-21T01:35:51.325Z,6.10
2024-02-21T01:38:24.536Z,5.90
2024-02-21T01:40:57.770Z,5.50
2024-02-21T01:43:31.383Z,5.90
2024-02-21T01:46:05.757Z,6.00
2024-02-21T01:48:40.058Z,6.00
2024-02-21T01:51:14.155Z,5.60
2024-02-21T01:53:48.603Z,5.90
2024-02-21T01:56:22.574Z,6.30
2024-02-21T01:58:57.634Z,6.20
2024-02-21T02:01:31.782Z,6.30
2024-02-21T02:04:06.723Z,6.10
2024-02-21T02:06:40.026Z,6.50
2024-02-21T02:09:13.570Z,6.30
2024-02-21T02:11:47.646Z,6.70
2024-02-21T02:14:20.780Z,6.20
2024-02-21T02:16:53.958Z,5.80
2024-02-21T02:19:27.385Z,6.60
2024-02-21T02:22:11.780Z,6.10
2024-02-21T02:24:45.566Z,6.00
2024-02-21T02:27:18.676Z,6.70
2024-02-21T02:29:52.881Z,7.00
2024-02-21T02:32:26.189Z,6.90
2024-02-21T02:34:59.505Z,7.30
2024-02-21T02:37:33.108Z,6.70
2024-02-21T02:40:06.989Z,6.10
2024-02-21T02:42:40.226Z,6.00
2024-02-21T02:45:14.949Z,4.90
2024-02-21T02:47:49.512Z,5.40
2024-02-21T02:50:22.850Z,5.20
2024-02-21T02:52:56.723Z,5.20
2024-02-21T02:55:30.407Z,6.00
2024-02-21T02:58:03.670Z,5.10
2024-02-21T03:00:37.876Z,5.80
2024-02-21T03:03:11.236Z,5.00
2024-02-21T03:05:44.402Z,5.30
2024-02-21T03:08:17.658Z,5.30
2024-02-21T03:10:50.917Z,5.20
2024-02-21T03:13:24.539Z,5.30
2024-02-21T03:15:57.737Z,5.10
2024-02-21T03:18:30.962Z,5.30
2024-02-21T03:21:04.931Z,4.80
2024-02-21T03:23:38.066Z,5.00
2024-02-21T03:26:11.250Z,5.10
2024-02-21T03:28:46.538Z,5.90
2024-02-21T03:31:20.055Z,5.00
2024-02-21T03:33:53.236Z,4.60
2024-02-21T03:36:26.397Z,5.20
2024-02-21T03:39:00.715Z,4.20
2024-02-21T03:41:34.219Z,4.90
2024-02-21T03:44:07.783Z,5.20
2024-02-21T03:46:41.157Z,5.00
2024-02-21T03:49:14.531Z,5.20
2024-02-21T03:51:47.791Z,5.10
2024-02-21T03:54:20.932Z,5.20
2024-02-21T03:56:54.113Z,4.40
2024-02-21T03:59:27.432Z,4.70
2024-02-21T04:02:01.010Z,4.10
2024-02-21T04:04:34.200Z,5.00
2024-02-21T04:07:08.402Z,5.00
2024-02-21T04:09:41.518Z,5.40
2024-02-21T04:12:14.826Z,5.20
2024-02-21T04:14:48.120Z,5.20
2024-02-21T04:17:21.248Z,4.40
2024-02-21T04:20:03.733Z,4.20
2024-02-21T04:22:37.518Z,5.70
2024-02-21T04:25:12.065Z,4.10
2024-02-21T04:27:45.320Z,5.10
2024-02-21T04:30:19.572Z,5.20
2024-02-21T04:32:52.731Z,4.80
2024-02-21T04:35:25.994Z,5.80
2024-02-21T04:37:59.308Z,6.40
2024-02-21T04:40:32.743Z,5.30
2024-02-21T04:43:06.328Z,6.60
2024-02-21T04:45:39.392Z,13.20
2024-02-21T04:48:12.816Z,13.00
2024-02-21T04:50:46.186Z,16.70
2024-02-21T04:53:19.777Z,10.20
2024-02-21T04:55:53.119Z,7.70
2024-02-21T04:58:26.993Z,8.20
2024-02-21T05:01:00.347Z,7.80
2024-02-21T05:03:33.964Z,6.40
2024-02-21T05:06:09.014Z,5.40
2024-02-21T05:08:42.379Z,5.70
2024-02-21T05:11:15.708Z,5.00
2024-02-21T05:13:49.075Z,4.80
2024-02-21T05:16:22.299Z,4.70
2024-02-21T05:18:55.643Z,5.90
2024-02-21T05:21:29.350Z,5.90
2024-02-21T05:24:02.478Z,6.20
2024-02-21T05:26:35.688Z,5.30
2024-02-21T05:29:08.940Z,6.50
2024-02-21T05:32:01.053Z,5.50
2024-02-21T05:34:34.642Z,6.90
2024-02-21T05:37:08.229Z,7.80
2024-02-21T05:39:41.351Z,7.20
2024-02-21T05:42:14.624Z,6.30
2024-02-21T05:44:47.955Z,6.20
2024-02-21T05:47:21.829Z,5.90
2024-02-21T05:49:55.715Z,6.70
2024-02-21T05:52:29.034Z,6.30
2024-02-21T05:55:02.397Z,5.80
2024-02-21T05:57:35.537Z,5.90
2024-02-21T06:00:12.172Z,6.90
2024-02-21T06:02:45.410Z,10.90
2024-02-21T06:05:18.851Z,12.20
2024-02-21T06:07:52.228Z,11.30
2024-02-21T06:10:25.704Z,11.10
2024-02-21T06:12:58.989Z,8.60
2024-02-21T06:15:32.696Z,7.80
2024-02-21T06:18:06.354Z,7.30
2024-02-21T06:20:41.443Z,7.90
2024-02-21T06:23:16.562Z,7.60
2024-02-21T06:25:49.922Z,7.00
2024-02-21T06:28:23.008Z,6.90
2024-02-21T06:30:56.270Z,5.70
2024-02-21T06:33:29.576Z,5.40
2024-02-21T06:36:02.878Z,5.70
2024-02-21T06:38:36.275Z,5.90
2024-02-21T06:41:16.440Z,6.70
2024-02-21T06:43:50.211Z,7.10
2024-02-21T06:46:31.689Z,5.90
2024-02-21T06:49:05.609Z,7.20
2024-02-21T06:51:38.952Z,7.10
2024-02-21T06:54:12.241Z,7.00
2024-02-21T06:56:45.743Z,6.80
2024-02-21T06:59:18.833Z,7.20
2024-02-21T07:01:56.812Z,6.20
2024-02-21T07:04:30.567Z,6.20
2024-02-21T07:07:04.019Z,7.00
2024-02-21T07:09:37.537Z,7.50
2024-02-21T07:12:11.578Z,7.30
2024-02-21T07:14:44.751Z,6.80
2024-02-21T07:17:17.955Z,6.60
2024-02-21T07:19:51.149Z,6.40
2024-02-21T07:22:24.439Z,6.40
2024-02-21T07:24:57.633Z,5.40
2024-02-21T07:27:32.354Z,6.30
2024-02-21T07:30:06.484Z,6.10
2024-02-21T07:32:39.671Z,6.70
2024-02-21T07:35:13.813Z,6.50
2024-02-21T07:37:47.435Z,6.70
2024-02-21T07:40:21.687Z,6.00
2024-02-21T07:42:54.814Z,6.30
2024-02-21T07:45:28.308Z,6.10
2024-02-21T07:48:01.539Z,10.40
2024-02-21T07:50:34.902Z,6.50
2024-02-21T07:53:08.431Z,6.50
2024-02-21T07:55:41.751Z,5.70
2024-02-21T07:58:14.896Z,6.60
2024-02-21T08:00:48.063Z,5.70
2024-02-21T08:03:21.936Z,6.10
2024-02-21T08:05:55.572Z,7.20
2024-02-21T08:08:28.786Z,7.40
2024-02-21T08:11:02.020Z,9.50
2024-02-21T08:13:35.459Z,12.40
2024-02-21T08:16:09.735Z,8.60
2024-02-21T08:18:45.161Z,7.00
2024-02-21T08:21:18.665Z,5.80
2024-02-21T08:23:52.735Z,5.50
2024-02-21T08:26:28.748Z,6.00
2024-02-21T08:29:02.180Z,7.80
2024-02-21T08:31:35.802Z,6.10
2024-02-21T08:34:09.803Z,6.20
2024-02-21T08:36:43.092Z,6.00
2024-02-21T08:39:18.188Z,6.30
2024-02-21T08:41:57.261Z,7.00
2024-02-21T08:44:33.729Z,6.20
2024-02-21T08:47:09.239Z,7.00
2024-02-21T08:49:42.640Z,6.10
2024-02-21T08:52:15.909Z,9.40
2024-02-21T08:54:49.091Z,7.20
2024-02-21T08:57:22.582Z,6.40
2024-02-21T08:59:55.732Z,6.30
2024-02-21T09:02:28.958Z,5.90
2024-02-21T09:05:02.368Z,6.50
2024-02-21T09:07:35.813Z,6.20
2024-02-21T09:10:11.298Z,7.10
2024-02-21T09:12:44.967Z,6.40
2024-02-21T09:15:18.524Z,7.70
2024-02-21T09:17:51.656Z,8.10
2024-02-21T09:20:25.063Z,7.60
2024-02-21T09:22:58.385Z,7.00
2024-02-21T09:25:32.827Z,6.50
2024-02-21T09:28:08.043Z,7.40
2024-02-21T09:30:41.535Z,5.60
2024-02-21T09:33:20.396Z,6.00
2024-02-21T09:35:59.789Z,8.60
2024-02-21T09:38:33.151Z,6.90
2024-02-21T09:41:19.895Z,7.20
2024-02-21T09:43:56.478Z,6.80
2024-02-21T09:46:53.291Z,7.60
2024-02-21T09:49:37.247Z,7.10
2024-02-21T09:52:13.165Z,7.80
2024-02-21T09:54:46.625Z,9.20
2024-02-21T09:57:21.123Z,6.10
2024-02-21T09:59:57.832Z,5.40
2024-02-21T10:02:31.089Z,6.10
2024-02-21T10:05:06.028Z,6.50
2024-02-21T10:07:40.818Z,6.30
2024-02-21T10:10:15.585Z,7.60
2024-02-21T10:12:55.906Z,7.80
2024-02-21T10:15:29.812Z,6.70
2024-02-21T10:18:07.940Z,8.90
2024-02-21T10:20:41.198Z,11.90
2024-02-21T10:23:14.608Z,10.30
2024-02-21T10:25:48.388Z,6.90
2024-02-21T10:28:24.575Z,8.50
2024-02-21T10:30:58.370Z,8.20
2024-02-21T10:33:33.510Z,7.40
2024-02-21T10:36:15.348Z,7.10
2024-02-21T10:38:48.495Z,7.20
2024-02-21T10:41:25.375Z,6.70
2024-02-21T10:44:01.852Z,7.90
2024-02-21T10:46:37.980Z,7.80
2024-02-21T10:49:19.063Z,7.50
2024-02-21T10:51:54.933Z,7.30
2024-02-21T10:54:47.196Z,5.90
2024-02-21T10:57:21.623Z,5.70
2024-02-21T10:59:57.012Z,5.70
2024-02-21T11:02:32.904Z,6.90
2024-02-21T11:05:08.066Z,7.70
2024-02-21T11:07:43.489Z,6.30
2024-02-21T11:10:28.995Z,7.70
2024-02-21T11:13:15.272Z,8.50
2024-02-21T11:15:49.105Z,8.90
2024-02-21T11:18:29.945Z,8.00
2024-02-21T11:21:04.078Z,8.10
2024-02-21T11:23:37.486Z,8.20
2024-02-21T11:26:12.656Z,8.60
2024-02-21T11:28:46.226Z,9.90
2024-02-21T11:31:20.238Z,9.50
2024-02-21T11:33:55.414Z,7.70
2024-02-21T11:36:32.580Z,8.90
2024-02-21T11:39:10.784Z,8.60
2024-02-21T11:41:44.482Z,9.30
2024-02-21T11:44:17.742Z,9.10
2024-02-21T11:46:53.070Z,9.90
2024-02-21T11:49:28.868Z,10.00
2024-02-21T11:52:06.842Z,7.70
2024-02-21T11:54:40.028Z,10.40
2024-02-21T11:57:13.900Z,9.40
2024-02-21T11:59:49.676Z,11.20
2024-02-21T12:02:23.176Z,9.20
2024-02-21T12:04:57.021Z,8.60
2024-02-21T12:07:30.777Z,9.90
2024-02-21T12:10:08.816Z,10.30
2024-02-21T12:12:42.280Z,9.60
2024-02-21T12:15:15.652Z,6.90
2024-02-21T12:17:49.037Z,8.20
2024-02-21T12:20:22.733Z,7.80
2024-02-21T12:22:56.318Z,6.90
2024-02-21T12:25:30.827Z,6.60
2024-02-21T12:28:05.250Z,6.40
2024-02-21T12:30:41.023Z,6.30
2024-02-21T12:33:15.321Z,5.20
2024-02-21T12:35:50.782Z,6.10
2024-02-21T12:38:24.125Z,5.90
2024-02-21T12:40:58.377Z,6.60
2024-02-21T12:43:31.675Z,4.70
2024-02-21T12:46:05.109Z,6.00
2024-02-21T12:48:38.458Z,5.50
2024-02-21T12:51:12.354Z,5.60
2024-02-21T12:53:45.778Z,4.70
2024-02-21T12:56:19.025Z,6.70
2024-02-21T12:58:53.182Z,6.60
2024-02-21T13:01:27.324Z,4.70
2024-02-21T13:04:02.106Z,5.30
2024-02-21T13:06:36.577Z,4.80
2024-02-21T13:09:12.214Z,5.10
2024-02-21T13:11:47.361Z,5.60
2024-02-21T13:14:21.114Z,5.00
2024-02-21T13:16:54.739Z,4.80
2024-02-21T13:19:28.387Z,4.70
2024-02-21T13:22:01.679Z,5.00
2024-02-21T13:24:35.164Z,4.60
2024-02-21T13:27:08.483Z,5.00
2024-02-21T13:29:41.701Z,5.90
2024-02-21T13:32:16.506Z,5.80
2024-02-21T13:34:50.067Z,6.40
2024-02-21T13:37:23.485Z,6.50
2024-02-21T13:39:57.069Z,6.80
2024-02-21T13:42:31.114Z,8.70
2024-02-21T13:45:06.534Z,6.90
2024-02-21T13:47:40.283Z,6.10
2024-02-21T13:50:15.530Z,6.10
2024-02-21T13:52:48.936Z,6.40
2024-02-21T13:55:23.469Z,6.80
2024-02-21T13:57:56.690Z,7.50
2024-02-21T14:00:30.227Z,6.90
2024-02-21T14:03:03.521Z,7.90
2024-02-21T14:05:38.801Z,6.50
2024-02-21T14:08:13.561Z,6.70
2024-02-21T14:10:46.869Z,6.10
2024-02-21T14:13:21.873Z,7.00
2024-02-21T14:15:55.485Z,7.30
2024-02-21T14:18:31.244Z,7.70
2024-02-21T14:21:05.203Z,7.50
2024-02-21T14:23:39.019Z,7.20
2024-02-21T14:26:13.374Z,7.80
2024-02-21T14:28:47.014Z,8.00
2024-02-21T14:31:21.337Z,6.70
2024-02-21T14:33:54.930Z,8.40
2024-02-21T14:36:28.403Z,8.70
2024-02-21T14:39:01.632Z,7.20
2024-02-21T14:41:37.495Z,6.00
2024-02-21T14:44:11.540Z,6.80
2024-02-21T14:46:46.466Z,8.50
2024-02-21T14:49:21.914Z,7.00
2024-02-21T14:51:55.336Z,6.30
2024-02-21T14:54:28.557Z,6.80
2024-02-21T14:57:02.133Z,6.50
2024-02-21T14:59:35.644Z,6.20
2024-02-21T15:02:10.186Z,7.30
2024-02-21T15:04:44.222Z,7.80
2024-02-21T15:07:18.334Z,7.80
2024-02-21T15:09:51.778Z,8.70
2024-02-21T15:12:25.288Z,7.00
2024-02-21T15:14:58.599Z,7.40
2024-02-21T15:17:31.810Z,8.50
2024-02-21T15:20:08.804Z,9.30
2024-02-21T15:22:42.158Z,8.80
2024-02-21T15:25:16.613Z,8.40
2024-02-21T15:27:51.012Z,7.80
2024-02-21T15:30:24.159Z,7.90
2024-02-21T15:32:59.578Z,8.80
2024-02-21T15:35:33.024Z,7.60
2024-02-21T15:38:08.983Z,7.00
2024-02-21T15:40:42.207Z,6.80
2024-02-21T15:43:15.399Z,10.30
2024-02-21T15:45:48.693Z,9.20
2024-02-21T15:48:26.052Z,8.00
2024-02-21T15:51:01.304Z,7.70
2024-02-21T15:53:35.074Z,7.50
2024-02-21T15:56:08.975Z,6.60
2024-02-21T15:58:43.052Z,6.40
2024-02-21T16:01:16.511Z,4.80
2024-02-21T16:03:49.708Z,5.50
2024-02-21T16:06:22.986Z,5.20
2024-02-21T16:09:26.439Z,5.50
2024-02-21T16:11:59.744Z,4.90
2024-02-21T16:14:33.022Z,4.10
2024-02-21T16:17:06.973Z,5.40
2024-02-21T16:19:40.257Z,6.00
2024-02-21T16:22:14.675Z,5.40
2024-02-21T16:24:53.102Z,4.80
2024-02-21T16:27:26.543Z,5.20
2024-02-21T16:29:59.699Z,6.50
2024-02-21T16:32:33.252Z,5.10
2024-02-21T16:35:07.161Z,5.10
2024-02-21T16:37:40.290Z,5.80
2024-02-21T16:40:15.800Z,5.90
2024-02-21T16:42:50.660Z,6.00
2024-02-21T16:45:23.839Z,5.70
2024-02-21T16:47:57.150Z,6.80
2024-02-21T16:50:31.987Z,6.50
2024-02-21T16:53:05.653Z,5.30
2024-02-21T16:55:39.118Z,5.60
2024-02-21T16:58:14.152Z,6.20
2024-02-21T17:00:47.999Z,10.30
2024-02-21T17:03:22.508Z,10.50
2024-02-21T17:06:00.709Z,11.10
2024-02-21T17:08:41.832Z,12.70
2024-02-21T17:11:15.324Z,12.20
2024-02-21T17:13:48.790Z,13.30
2024-02-21T17:16:22.170Z,13.50
2024-02-21T17:18:55.584Z,13.70
2024-02-21T17:21:30.127Z,14.40
2024-02-21T17:24:03.848Z,15.90
2024-02-21T17:26:37.006Z,16.80
2024-02-21T17:29:10.268Z,19.90
2024-02-21T17:31:44.512Z,21.50
2024-02-21T17:34:17.866Z,19.50
2024-02-21T17:36:51.236Z,16.80
2024-02-21T17:39:24.417Z,15.50
2024-02-21T17:41:58.071Z,15.50
2024-02-21T17:44:31.537Z,14.90
2024-02-21T17:47:05.466Z,13.20
2024-02-21T17:49:38.897Z,11.90
2024-02-21T17:52:12.644Z,12.50
2024-02-21T17:54:48.353Z,10.40
2024-02-21T17:57:21.935Z,8.70
2024-02-21T17:59:55.186Z,8.10
2024-02-21T18:02:28.313Z,9.10
2024-02-21T18:05:01.818Z,9.00
2024-02-21T18:07:35.773Z,9.10
2024-02-21T18:10:10.760Z,9.10
2024-02-21T18:12:44.265Z,9.50
2024-02-21T18:15:17.690Z,8.80
2024-02-21T18:17:50.912Z,8.80
2024-02-21T18:20:25.690Z,8.70
2024-02-21T18:22:59.220Z,10.60
2024-02-21T18:25:32.589Z,9.60
2024-02-21T18:28:06.269Z,8.20
2024-02-21T18:30:39.519Z,7.80
2024-02-21T18:33:12.773Z,7.80
2024-02-21T18:35:46.368Z,8.60
2024-02-21T18:38:19.756Z,8.80
2024-02-21T18:40:52.973Z,8.30
2024-02-21T18:43:26.200Z,7.50
2024-02-21T18:45:59.375Z,7.90
2024-02-21T18:48:33.074Z,8.70
2024-02-21T18:51:06.788Z,8.20
2024-02-21T18:53:40.245Z,8.80
2024-02-21T18:56:13.895Z,9.60
2024-02-21T18:58:49.494Z,9.10
2024-02-21T19:01:22.888Z,9.70
2024-02-21T19:03:56.231Z,9.20
2024-02-21T19:06:29.650Z,9.80
2024-02-21T19:09:04.510Z,10.00
2024-02-21T19:11:37.940Z,10.00
2024-02-21T19:14:11.494Z,10.50
2024-02-21T19:16:44.826Z,10.60
2024-02-21T19:19:18.681Z,11.40
2024-02-21T19:21:51.957Z,11.30
2024-02-21T19:24:25.670Z,11.60
2024-02-21T19:26:58.912Z,10.70
2024-02-21T19:29:32.528Z,11.20
2024-02-21T19:32:06.038Z,10.30
2024-02-21T19:34:42.443Z,11.20
2024-02-21T19:37:16.370Z,11.00
2024-02-21T19:39:49.873Z,11.30
2024-02-21T19:42:23.050Z,9.30
2024-02-21T19:44:56.150Z,9.50
2024-02-21T19:47:29.504Z,9.50
2024-02-21T19:50:02.873Z,9.30
2024-02-21T19:52:36.191Z,10.50
2024-02-21T19:55:11.074Z,9.20
2024-02-21T19:57:44.235Z,8.30
2024-02-21T20:00:20.842Z,9.00
2024-02-21T20:02:54.481Z,8.50
2024-02-21T20:05:27.873Z,9.70
2024-02-21T20:08:02.232Z,8.30
2024-02-21T20:10:35.547Z,9.80
2024-02-21T20:13:09.140Z,11.60
2024-02-21T20:15:43.671Z,13.60
2024-02-21T20:18:17.189Z,11.60
2024-02-21T20:20:50.708Z,13.10
2024-02-21T20:23:23.952Z,13.00
2024-02-21T20:25:57.507Z,11.60
2024-02-21T20:28:30.959Z,10.50
2024-02-21T20:31:04.474Z,9.00
2024-02-21T20:33:37.882Z,8.60
2024-02-21T20:36:12.348Z,7.60
2024-02-21T20:38:45.656Z,9.50
2024-02-21T20:41:22.760Z,8.80
2024-02-21T20:43:56.013Z,9.40
2024-02-21T20:46:29.615Z,10.30
2024-02-21T20:49:02.828Z,10.40
2024-02-21T20:51:35.989Z,8.80
2024-02-21T20:54:09.222Z,9.70
2024-02-21T20:56:42.866Z,8.40
2024-02-21T20:59:17.927Z,6.90
2024-02-21T21:01:58.622Z,7.30
2024-02-21T21:04:36.924Z,6.70
2024-02-21T21:07:10.699Z,6.70
2024-02-21T21:09:44.509Z,6.70
2024-02-21T21:12:17.701Z,7.10
2024-02-21T21:14:51.120Z,6.20
2024-02-21T21:17:24.423Z,7.10
2024-02-21T21:19:58.034Z,7.10
2024-02-21T21:22:32.282Z,6.70
2024-02-21T21:25:06.419Z,7.20
2024-02-21T21:27:44.043Z,7.40
2024-02-21T21:30:18.448Z,8.10
2024-02-21T21:32:51.676Z,9.00
2024-02-21T21:35:27.169Z,8.20
2024-02-21T21:38:01.150Z,7.60
2024-02-21T21:40:34.512Z,7.30
2024-02-21T21:43:07.864Z,7.30
2024-02-21T21:45:41.031Z,8.70
2024-02-21T21:48:14.282Z,8.10
2024-02-21T21:50:47.615Z,7.20
2024-02-21T21:53:20.812Z,7.30
2024-02-21T21:55:54.065Z,6.90
2024-02-21T21:58:27.363Z,7.20
2024-02-21T22:01:00.748Z,6.60
2024-02-21T22:03:34.017Z,7.10
2024-02-21T22:06:07.855Z,6.30
2024-02-21T22:08:45.464Z,7.30
2024-02-21T22:11:20.540Z,6.80
2024-02-21T22:13:54.540Z,6.10
2024-02-21T22:16:27.914Z,6.10
2024-02-21T22:19:01.242Z,7.60
2024-02-21T22:21:35.398Z,7.20
2024-02-21T22:24:09.955Z,6.10
2024-02-21T22:26:43.273Z,5.80
2024-02-21T22:29:16.770Z,5.80
2024-02-21T22:31:50.264Z,5.30
2024-02-21T22:34:23.483Z,5.60
2024-02-21T22:36:56.773Z,5.50
2024-02-21T22:39:30.520Z,4.80
2024-02-21T22:42:03.713Z,5.30
2024-02-21T22:44:41.920Z,6.10
2024-02-21T22:47:15.857Z,5.60
2024-02-21T22:49:49.136Z,5.00
2024-02-21T22:52:22.279Z,4.60
2024-02-21T22:54:55.418Z,5.20
2024-02-21T22:57:28.575Z,5.30
2024-02-21T23:00:02.449Z,6.30
2024-02-21T23:02:35.819Z,6.10
2024-02-21T23:05:10.419Z,4.70
2024-02-21T23:07:43.712Z,6.20
2024-02-21T23:10:17.724Z,5.50
2024-02-21T23:12:50.813Z,5.50
2024-02-21T23:15:23.946Z,5.40
2024-02-21T23:17:57.250Z,4.80
2024-02-21T23:20:31.367Z,6.10
2024-02-21T23:23:04.801Z,5.30
2024-02-21T23:25:37.962Z,5.50
2024-02-21T23:28:11.245Z,5.50
2024-02-21T23:30:44.512Z,5.50
2024-02-21T23:33:17.784Z,5.60
2024-02-21T23:35:51.265Z,5.30
2024-02-21T23:38:24.549Z,5.70
2024-02-21T23:40:57.912Z,5.80
2024-02-21T23:43:31.151Z,5.90
2024-02-21T23:46:04.502Z,6.10
2024-02-21T23:48:38.317Z,5.90
2024-02-21T23:51:11.964Z,6.00
2024-02-21T23:53:45.280Z,6.70
2024-02-21T23:56:18.786Z,6.60
2024-02-21T23:58:52.160Z,7.40
